Aeroporto :
LOGIN :

Iscrizione | Disclaimer

   EN    FR    IT 

 










Sommario :    VFR   VFR Marginale   IFR   IFR Intensivo   IFR Molto Intensivo
Visibilità : 
Base nubi : 
>= 8 km
>= 3000ft
5 / 8 km
1000 / 3000 ft
1500m / 5 km
500 / 1000 ft
800 / 1500m
200 / 500 ft
< 800m
< 200 ft
Simboli :   Temporali  Nebbia  Neve Forte  Precipitazioni Forti  Vento > 20 kt
SIGMETs :   Varie  Temporali  Ghiacco  Turbolenza  Onda orograficha  Ceneri Vulcaniche






- Altitudine del aeroporto : 18 ft
- Codice IATA : AJA


LFKJ - Ajaccio

ULTIMO METAR :
  • 232300Z AUTO 11015G28KT 070V140 9999 TS BKN062/// OVC090/// ///CB 25/14 Q1011 TEMPO 1000 +TSRA BR BKN008 BKN020CB BECMG 28015KT

METARs OBSOLETI :
  • 232230Z AUTO 11014G25KT 9999 FEW064/// BKN076/// BKN092/// ///CB 24/13 Q1011 TEMPO 1000 +TSRA BR BKN008 BKN020CB BECMG 28015KT
  • 232200Z AUTO 11021G36KT 080V140 9999 SCT066/// OVC120/// ///CB 25/12 Q1010 TEMPO 1000 +TSRA BR BKN008 BKN020CB BECMG 28015KT
  • 232130Z AUTO 12021G36KT 090V150 CAVOK 26/10 Q1010 TEMPO 1000 +TSRA BR BKN008 BKN020CB BECMG 28015KT
  • 232100Z AUTO 13021G31KT 090V160 CAVOK 27/07 Q1009 TEMPO 1000 +TSRA BR BKN008 BKN020CB
  • 232030Z AUTO 12017G30KT 080V150 CAVOK 27/08 Q1009 TEMPO SHRA SCT020CB BKN040 BECMG VRB06KT

TAF TAF LFKJ
Valido dal 23 a 21 ore il 24 a 21 ore UTC


232000Z 2321/2421 11015KT 9999 FEW030 BKN100
TEMPO 2321/2323 11020G40KT FEW020CB
BECMG 2323/2401 28015KT
BECMG 2401/2403 VRB06KT
TEMPO 2322/2404 1000 +TSRA BR BKN008 BKN020CB
BECMG 2404/2406 BKN015
TEMPO 2404/2412 BKN020 FEW030CB
ATIS : +33 4 95 23 59 85



MetMap, La meteo Aeronautica in un colpo d'occhio ! - Copyright ORBIFLY Dicembre 2007 - Disclaimer

ORBIFLY MET'MAP TEAM :

Programmazione e sviluppo : Alexandra Zaïnal
Concezione e sviluppo : Baudouin d'Aumeries
Co-Programmazione e sviluppo : Marc-Olivier Méhu
Supporto tecnico e logistico : Manuel Goepfert
Aiuto per la traduzione : Arnaldo La Scala

Contatto : metmap@orbifly.com




FONTI E CREDITI :

   NOAA